Agios Ioannis II — SV4996 — position and weather

sailwx.info

Track history (hours):
 
Tides and Currents Weather Stations Pressure Air Temp Water Temp Dewpoint Dewpoint Depression Visibility Wind Speed Wind Dir Waves Ship Positions

Agios Ioannis II

Last reported at 2017-Jan-13 21:23 UTC. Time now 2017-Feb-24 12:40 UTC.
Position N 38°38' E 025°60'.
Warning: this ship's position is 41 days out of date.

Length 27 m.

Type: Other ship. MMSI: 237519000.

Date/timePositionNaut miles runAvg speedWind from/ knotsBaromVisibWave heightAir tempDewpointWater temp
2017-Jan-13 21:23N 38°38' E 025°60'3 3.0
2017-Jan-13 20:30N 38°37' E 025°56'3 2.9
2017-Jan-13 19:33N 38°37' E 025°53'3 2.8
2017-Jan-13 18:34N 38°36' E 025°50'10 0.5
2017-Jan-12 23:32N 38°37' E 026°02'15 1.9
2017-Jan-12 15:32N 38°26' E 026°14'3 2.7
2017-Jan-12 14:13N 38°23' E 026°12'6 1.6
2017-Jan-12 10:22N 38°28' E 026°16'5 2.6
2017-Jan-12 08:33N 38°24' E 026°13'11 2.1
2017-Jan-12 03:29N 38°34' E 026°06'0 0.0
2017-Jan-11 22:33N 38°34' E 026°06'0 0.0
2017-Jan-11 21:32N 38°34' E 026°06'6 0.4
2017-Jan-11 06:24N 38°39' E 026°03'2 2.8
2017-Jan-11 05:33N 38°39' E 025°60'3 1.6
2017-Jan-11 03:34N 38°37' E 026°03'5 5.3
2017-Jan-11 02:33N 38°33' E 026°07'0 0.0
2017-Jan-11 01:33N 38°33' E 026°07'0 0.0
2017-Jan-11 00:33N 38°33' E 026°07'0 0.0
2017-Jan-10 23:33N 38°33' E 026°07'0 0.0
2017-Jan-10 22:33N 38°33' E 026°07'0 0.0
2017-Jan-10 21:31N 38°33' E 026°07'2 2.6
2017-Jan-10 20:33N 38°34' E 026°09'  
2017-Jan-07 16:29N 38°19' E 026°11'4 0.5
2017-Jan-07 08:03N 38°23' E 026°08'0 0.0
2017-Jan-07 04:32N 38°23' E 026°08'0 0.0
2017-Jan-07 03:09N 38°23' E 026°08'0 0.0
2017-Jan-07 02:33N 38°23' E 026°08'0 0.0
2017-Jan-06 13:26N 38°23' E 026°08'0 0.0
2017-Jan-06 03:29N 38°23' E 026°08'0 0.0
2017-Jan-06 02:28N 38°23' E 026°08'0 0.0
2017-Jan-06 01:16N 38°23' E 026°08'0 0.0
2017-Jan-05 23:22N 38°23' E 026°08'0 0.0
2017-Jan-05 22:20N 38°23' E 026°08'15 2.0
2017-Jan-05 15:09N 38°37' E 026°14'0 0.7
2017-Jan-05 14:28N 38°37' E 026°13'3 2.9
2017-Jan-05 13:33N 38°38' E 026°10'3 2.9
2017-Jan-05 12:33N 38°39' E 026°07'3 2.9
2017-Jan-05 11:33N 38°39' E 026°03'3 2.9
2017-Jan-05 10:33N 38°40' E 025°60'3 3.2
2017-Jan-05 09:33N 38°40' E 025°55'2 2.0
2017-Jan-05 08:33N 38°40' E 025°58'3 2.8
2017-Jan-05 07:33N 38°39' E 026°01'  
Track history (hours):
 
Tides and Currents Weather Stations Pressure Air Temp Water Temp Dewpoint Dewpoint Depression Visibility Wind Speed Wind Dir Waves Ship Positions

Agios Ioannis II

Last reported at 2017-Jan-13 21:23 UTC. Time now 2017-Feb-24 12:40 UTC.
Position N 38°38' E 025°60'.
Warning: this ship's position is 41 days out of date.

Length 27 m.

Type: Other ship. MMSI: 237519000.

Date/timePositionNaut miles runAvg speedWind from/ knotsBaromVisibWave heightAir tempDewpointWater temp
2017-Jan-13 21:23N 38°38' E 025°60'3 3.0
2017-Jan-13 20:30N 38°37' E 025°56'3 2.9
2017-Jan-13 19:33N 38°37' E 025°53'3 2.8
2017-Jan-13 18:34N 38°36' E 025°50'10 0.5
2017-Jan-12 23:32N 38°37' E 026°02'15 1.9
2017-Jan-12 15:32N 38°26' E 026°14'3 2.7
2017-Jan-12 14:13N 38°23' E 026°12'6 1.6
2017-Jan-12 10:22N 38°28' E 026°16'5 2.6
2017-Jan-12 08:33N 38°24' E 026°13'11 2.1
2017-Jan-12 03:29N 38°34' E 026°06'0 0.0
2017-Jan-11 22:33N 38°34' E 026°06'0 0.0
2017-Jan-11 21:32N 38°34' E 026°06'6 0.4
2017-Jan-11 06:24N 38°39' E 026°03'2 2.8
2017-Jan-11 05:33N 38°39' E 025°60'3 1.6
2017-Jan-11 03:34N 38°37' E 026°03'5 5.3
2017-Jan-11 02:33N 38°33' E 026°07'0 0.0
2017-Jan-11 01:33N 38°33' E 026°07'0 0.0
2017-Jan-11 00:33N 38°33' E 026°07'0 0.0
2017-Jan-10 23:33N 38°33' E 026°07'0 0.0
2017-Jan-10 22:33N 38°33' E 026°07'0 0.0
2017-Jan-10 21:31N 38°33' E 026°07'2 2.6
2017-Jan-10 20:33N 38°34' E 026°09'  
2017-Jan-07 16:29N 38°19' E 026°11'4 0.5
2017-Jan-07 08:03N 38°23' E 026°08'0 0.0
2017-Jan-07 04:32N 38°23' E 026°08'0 0.0
2017-Jan-07 03:09N 38°23' E 026°08'0 0.0
2017-Jan-07 02:33N 38°23' E 026°08'0 0.0
2017-Jan-06 13:26N 38°23' E 026°08'0 0.0
2017-Jan-06 03:29N 38°23' E 026°08'0 0.0
2017-Jan-06 02:28N 38°23' E 026°08'0 0.0
2017-Jan-06 01:16N 38°23' E 026°08'0 0.0
2017-Jan-05 23:22N 38°23' E 026°08'0 0.0
2017-Jan-05 22:20N 38°23' E 026°08'15 2.0
2017-Jan-05 15:09N 38°37' E 026°14'0 0.7
2017-Jan-05 14:28N 38°37' E 026°13'3 2.9
2017-Jan-05 13:33N 38°38' E 026°10'3 2.9
2017-Jan-05 12:33N 38°39' E 026°07'3 2.9
2017-Jan-05 11:33N 38°39' E 026°03'3 2.9
2017-Jan-05 10:33N 38°40' E 025°60'3 3.2
2017-Jan-05 09:33N 38°40' E 025°55'2 2.0
2017-Jan-05 08:33N 38°40' E 025°58'3 2.8
2017-Jan-05 07:33N 38°39' E 026°01'  

Dump ship's entire track history